Time;durP1;ratioP1;P1;durP2;ratioP2;P2;SDS_P1;SDS_P2;PMS_P1;PMS_P2;Temp;Humidity;BMP_temperature;BMP_pressure;BME280_temperature;BME280_humidity;BME280_pressure;Samples;Min_cycle;Max_cycle;Signal;HPM_P1;HPM_P2
2021/12/20 00:02:15;;;;;;;20.67;10.73;;;6.90;93.10;;;;;;5029549;28;20044;-69
2021/12/20 00:04:40;;;;;;;23.25;12.32;;;6.90;93.00;;;;;;5036745;28;20045;-69
2021/12/20 00:07:06;;;;;;;18.70;10.40;;;6.90;93.30;;;;;;5038042;28;20052;-69
2021/12/20 00:09:32;;;;;;;19.60;10.50;;;6.90;93.00;;;;;;5048429;28;20032;-69
2021/12/20 00:11:58;;;;;;;21.48;10.80;;;6.90;93.10;;;;;;5034362;28;20499;-69
2021/12/20 00:14:23;;;;;;;18.63;9.65;;;6.90;93.20;;;;;;5024799;28;20089;-69
2021/12/20 00:16:49;;;;;;;24.60;11.82;;;6.80;93.20;;;;;;5033003;28;20029;-69
2021/12/20 00:19:15;;;;;;;23.83;11.95;;;6.80;93.20;;;;;;5041098;28;20068;-69
2021/12/20 00:21:41;;;;;;;26.15;12.85;;;6.90;93.30;;;;;;5026315;28;20049;-69
2021/12/20 00:24:07;;;;;;;23.63;13.27;;;6.90;93.40;;;;;;5033742;28;20029;-69
2021/12/20 00:26:33;;;;;;;24.98;12.57;;;6.90;93.30;;;;;;5029872;28;20480;-69
2021/12/20 00:28:59;;;;;;;21.45;11.02;;;6.90;93.30;;;;;;5030537;28;20036;-69
2021/12/20 00:31:24;;;;;;;22.05;11.57;;;6.90;93.40;;;;;;5043389;28;20029;-69
2021/12/20 00:33:50;;;;;;;21.00;9.95;;;6.90;93.30;;;;;;5025935;28;20079;-69
2021/12/20 00:36:21;;;;;;;19.92;9.90;;;6.90;93.30;;;;;;5039617;28;20025;-69
2021/12/20 00:41:31;;;;;;;20.10;9.90;;;6.90;93.40;;;;;;5026847;28;19962;-69
2021/12/20 00:43:59;;;;;;;18.27;9.13;;;6.80;93.50;;;;;;5037374;28;20025;-69
2021/12/20 00:46:25;;;;;;;24.75;10.25;;;6.90;93.50;;;;;;5030996;28;20085;-69
2021/12/20 00:48:51;;;;;;;20.42;9.90;;;6.80;93.60;;;;;;5015579;28;20026;-69
2021/12/20 00:51:17;;;;;;;20.52;11.23;;;6.90;93.60;;;;;;5040268;28;20090;-69
2021/12/20 00:53:42;;;;;;;16.23;8.45;;;6.80;93.60;;;;;;5037710;28;20021;-69
2021/12/20 00:56:08;;;;;;;15.77;8.25;;;6.80;93.50;;;;;;5040795;28;20025;-69
2021/12/20 00:58:34;;;;;;;17.25;7.93;;;6.90;93.40;;;;;;5038939;28;20400;-69
2021/12/20 01:01:00;;;;;;;13.52;7.38;;;6.90;93.40;;;;;;5036951;28;20100;-69
2021/12/20 01:03:29;;;;;;;21.95;9.45;;;6.90;93.40;;;;;;5027608;28;20051;-69
2021/12/20 01:05:56;;;;;;;22.48;9.40;;;6.90;93.40;;;;;;5037514;28;20071;-69
2021/12/20 01:08:22;;;;;;;17.67;9.15;;;6.90;93.40;;;;;;5028593;28;20022;-69
2021/12/20 01:10:52;;;;;;;15.27;8.13;;;6.90;93.20;;;;;;5024939;28;20059;-69
2021/12/20 01:13:20;;;;;;;19.73;9.15;;;6.90;93.20;;;;;;5038554;28;20029;-69
2021/12/20 01:15:50;;;;;;;16.95;8.73;;;6.90;93.30;;;;;;5036106;28;20025;-69
2021/12/20 01:18:17;;;;;;;29.95;13.82;;;6.90;93.30;;;;;;5030052;28;20037;-69
2021/12/20 01:20:43;;;;;;;23.52;10.88;;;6.90;93.40;;;;;;5035413;28;20032;-69
2021/12/20 01:23:11;;;;;;;15.35;8.10;;;6.90;93.40;;;;;;5039972;28;20427;-69
2021/12/20 01:25:38;;;;;;;13.77;7.25;;;6.90;93.40;;;;;;5043081;28;20404;-69
2021/12/20 01:28:05;;;;;;;16.92;7.53;;;6.90;93.30;;;;;;5044302;28;20021;-69
2021/12/20 01:30:32;;;;;;;15.13;8.60;;;6.90;93.20;;;;;;5033503;28;20108;-69
2021/12/20 01:32:59;;;;;;;12.65;6.63;;;6.90;93.10;;;;;;5040598;28;20090;-69
2021/12/20 01:35:27;;;;;;;12.45;6.60;;;6.90;92.90;;;;;;5036716;28;20045;-69
2021/12/20 01:37:54;;;;;;;13.70;7.00;;;6.80;92.90;;;;;;5040536;28;20481;-69
2021/12/20 01:40:22;;;;;;;14.40;7.40;;;6.80;92.90;;;;;;5035981;28;20025;-69
2021/12/20 01:42:52;;;;;;;13.25;7.28;;;6.80;92.90;;;;;;5040512;28;20436;-69
2021/12/20 01:45:23;;;;;;;15.68;7.80;;;6.80;92.90;;;;;;5029884;28;20052;-69
2021/12/20 01:47:53;;;;;;;17.60;8.63;;;6.80;93.00;;;;;;5032058;28;20048;-69
2021/12/20 01:52:46;;;;;;;12.88;7.15;;;6.80;92.90;;;;;;5037919;28;20025;-69
2021/12/20 01:55:18;;;;;;;16.02;8.82;;;6.80;92.80;;;;;;5018691;28;20132;-70
2021/12/20 01:57:45;;;;;;;9.48;5.22;;;6.80;92.80;;;;;;5032413;28;20041;-69
2021/12/20 02:00:16;;;;;;;13.65;7.72;;;6.80;92.90;;;;;;5026198;28;20084;-69
2021/12/20 02:02:43;;;;;;;11.52;6.55;;;6.80;92.90;;;;;;5040016;28;20044;-69
2021/12/20 02:05:56;;;;;;;14.45;7.70;;;6.80;92.70;;;;;;5035608;28;20060;-69
2021/12/20 02:08:03;;;;;;;13.55;7.43;;;6.70;92.70;;;;;;5021606;28;20512;-69
2021/12/20 02:10:30;;;;;;;16.23;8.48;;;6.70;92.80;;;;;;5033909;28;20166;-69
2021/12/20 02:12:56;;;;;;;11.50;5.95;;;6.70;92.90;;;;;;5030743;28;20026;-69
2021/12/20 02:15:22;;;;;;;12.73;7.43;;;6.70;92.80;;;;;;5031684;28;20079;-69
2021/12/20 02:17:48;;;;;;;15.05;7.47;;;6.70;92.80;;;;;;5035138;28;20408;-69
2021/12/20 02:20:28;;;;;;;12.93;7.53;;;6.70;92.90;;;;;;5036429;28;20036;-69
2021/12/20 02:22:56;;;;;;;15.40;8.45;;;6.70;92.90;;;;;;5028051;28;20021;-69
2021/12/20 02:25:22;;;;;;;15.27;8.27;;;6.70;92.90;;;;;;5032416;28;20033;-69
2021/12/20 02:27:48;;;;;;;13.82;7.82;;;6.70;93.00;;;;;;5044028;28;20546;-69
2021/12/20 02:30:38;;;;;;;17.70;9.50;;;6.70;93.10;;;;;;5032762;28;20038;-69
2021/12/20 02:36:58;;;;;;;17.23;8.98;;;6.70;93.10;;;;;;5041667;28;20079;-69
2021/12/20 02:38:41;;;;;;;16.58;9.10;;;6.70;93.20;;;;;;5017176;28;20046;-69
2021/12/20 02:41:13;;;;;;;16.48;9.25;;;6.80;93.30;;;;;;5023289;28;20022;-69
2021/12/20 02:43:42;;;;;;;15.73;8.05;;;6.70;93.30;;;;;;5025056;28;20024;-69
2021/12/20 02:47:08;;;;;;;15.05;8.38;;;6.70;93.40;;;;;;5027329;28;20718;-69
2021/12/20 02:49:13;;;;;;;15.90;8.68;;;6.80;93.50;;;;;;5015077;28;20037;-69
2021/12/20 02:51:40;;;;;;;15.02;8.48;;;6.70;93.50;;;;;;5032418;28;20029;-69
2021/12/20 02:54:08;;;;;;;14.82;8.15;;;6.70;93.60;;;;;;5017002;28;20057;-69
2021/12/20 02:56:34;;;;;;;15.25;8.77;;;6.70;93.70;;;;;;5031269;28;20021;-70
2021/12/20 02:59:00;;;;;;;14.43;7.90;;;6.70;93.70;;;;;;5031900;28;20117;-69
2021/12/20 03:01:26;;;;;;;13.88;7.05;;;6.70;93.70;;;;;;5038153;28;20026;-69
2021/12/20 03:03:54;;;;;;;16.65;8.43;;;6.70;93.70;;;;;;5018555;28;20048;-69
2021/12/20 03:06:26;;;;;;;15.73;8.30;;;6.70;93.70;;;;;;5028088;28;20041;-69
2021/12/20 03:08:53;;;;;;;18.27;7.95;;;6.70;93.70;;;;;;5037395;28;20078;-69
2021/12/20 03:11:22;;;;;;;16.92;8.90;;;6.70;93.70;;;;;;5038306;28;20029;-69
2021/12/20 03:13:52;;;;;;;16.27;8.13;;;6.70;93.70;;;;;;5035923;28;20117;-69
2021/12/20 03:16:18;;;;;;;14.82;8.23;;;6.60;93.70;;;;;;5040638;28;20043;-69
2021/12/20 03:18:43;;;;;;;14.73;7.45;;;6.60;93.60;;;;;;5022358;28;20063;-69
2021/12/20 03:21:09;;;;;;;15.48;8.07;;;6.60;93.70;;;;;;5037085;28;20029;-69
2021/12/20 03:23:35;;;;;;;15.32;7.32;;;6.70;93.70;;;;;;5022859;28;20088;-69
2021/12/20 03:26:01;;;;;;;14.90;8.27;;;6.60;93.60;;;;;;5023531;28;20035;-69
2021/12/20 03:28:27;;;;;;;16.38;8.35;;;6.60;93.60;;;;;;5038724;28;20034;-69
2021/12/20 03:30:53;;;;;;;13.77;7.53;;;6.60;93.60;;;;;;5040108;28;20037;-69
2021/12/20 03:33:18;;;;;;;16.08;8.75;;;6.60;93.50;;;;;;5043924;28;20427;-69
2021/12/20 03:35:44;;;;;;;15.65;8.90;;;6.60;93.40;;;;;;5033114;28;20036;-70
2021/12/20 03:38:10;;;;;;;14.18;8.30;;;6.60;93.30;;;;;;5032779;28;20033;-69
2021/12/20 03:40:37;;;;;;;13.93;7.60;;;6.50;93.30;;;;;;5030293;28;20036;-69
2021/12/20 03:43:03;;;;;;;15.13;8.20;;;6.50;93.30;;;;;;5011452;28;20037;-69
2021/12/20 03:45:29;;;;;;;12.93;7.38;;;6.50;93.30;;;;;;5041411;28;20033;-69
2021/12/20 03:47:55;;;;;;;16.15;8.90;;;6.50;93.30;;;;;;5019018;28;20041;-69
2021/12/20 03:50:21;;;;;;;14.27;7.75;;;6.50;93.50;;;;;;5022484;28;20484;-69
2021/12/20 03:52:47;;;;;;;13.05;6.82;;;6.50;93.20;;;;;;5035982;28;20029;-69
2021/12/20 03:55:14;;;;;;;14.20;7.80;;;6.50;93.10;;;;;;5031011;28;20034;-69
2021/12/20 03:57:46;;;;;;;14.05;7.45;;;6.40;93.10;;;;;;5032651;28;20120;-69
2021/12/20 04:00:16;;;;;;;12.60;6.57;;;6.40;93.10;;;;;;5025890;28;20069;-69
2021/12/20 04:02:47;;;;;;;13.52;7.70;;;6.40;93.10;;;;;;5018971;28;20026;-69
2021/12/20 04:05:17;;;;;;;11.07;6.07;;;6.40;93.00;;;;;;5019269;28;20080;-69
2021/12/20 04:07:50;;;;;;;13.30;7.22;;;6.30;92.90;;;;;;5016117;28;20040;-69
2021/12/20 04:10:19;;;;;;;12.82;6.75;;;6.30;92.90;;;;;;5037379;28;20547;-69
2021/12/20 04:12:54;;;;;;;13.02;6.55;;;6.30;92.90;;;;;;5026299;28;20556;-69
2021/12/20 04:15:23;;;;;;;11.18;5.95;;;6.30;92.70;;;;;;5028969;28;20022;-69
2021/12/20 04:17:55;;;;;;;11.13;6.40;;;6.30;92.60;;;;;;5016865;28;20030;-69
2021/12/20 04:20:24;;;;;;;14.40;7.28;;;6.30;92.70;;;;;;5015408;28;20485;-69
2021/12/20 04:22:53;;;;;;;10.18;5.40;;;6.30;92.70;;;;;;5022056;28;20052;-69
2021/12/20 04:25:23;;;;;;;12.60;6.65;;;6.20;92.60;;;;;;5030711;28;20033;-69
2021/12/20 04:27:55;;;;;;;12.75;6.57;;;6.20;92.70;;;;;;5017122;28;20469;-69
2021/12/20 04:30:28;;;;;;;10.23;5.72;;;6.20;92.70;;;;;;5019287;28;20505;-69
2021/12/20 04:33:01;;;;;;;10.20;5.68;;;6.20;92.80;;;;;;5019175;28;20052;-69
2021/12/20 04:35:27;;;;;;;14.00;7.78;;;6.20;92.80;;;;;;5022629;28;20029;-69
2021/12/20 04:37:54;;;;;;;11.57;6.57;;;6.10;92.80;;;;;;5019477;28;20033;-69
2021/12/20 04:40:22;;;;;;;12.63;7.05;;;6.10;92.80;;;;;;5016159;28;20112;-69
2021/12/20 04:42:56;;;;;;;13.18;7.55;;;6.10;92.60;;;;;;5029274;28;20592;-70
2021/12/20 04:45:23;;;;;;;13.77;7.43;;;6.10;92.70;;;;;;5045059;28;20488;-69
2021/12/20 04:47:49;;;;;;;10.30;5.75;;;6.20;92.70;;;;;;5035248;28;20143;-69
2021/12/20 04:50:15;;;;;;;10.63;5.38;;;6.10;92.60;;;;;;5040248;28;20104;-69
2021/12/20 04:52:42;;;;;;;13.98;7.60;;;6.10;92.80;;;;;;5040621;28;20036;-69
2021/12/20 04:55:09;;;;;;;13.35;8.00;;;6.10;92.90;;;;;;5037887;28;20432;-69
2021/12/20 04:57:35;;;;;;;15.38;8.02;;;6.10;92.80;;;;;;5018295;28;20030;-69
2021/12/20 05:00:02;;;;;;;12.90;7.28;;;6.10;92.80;;;;;;5035620;28;20025;-69
2021/12/20 05:02:28;;;;;;;12.60;7.00;;;6.10;92.80;;;;;;5036458;28;20030;-69
2021/12/20 05:04:54;;;;;;;14.18;7.32;;;6.10;92.70;;;;;;5028969;28;20045;-69
2021/12/20 05:07:19;;;;;;;13.70;8.15;;;6.10;92.80;;;;;;5041279;28;20021;-69
2021/12/20 05:09:45;;;;;;;12.65;7.03;;;6.10;92.80;;;;;;5029141;28;20449;-69
2021/12/20 05:12:12;;;;;;;14.13;7.60;;;6.10;92.80;;;;;;5044608;28;20036;-69
2021/12/20 05:14:43;;;;;;;13.80;6.90;;;6.00;92.70;;;;;;5032311;28;20064;-70
2021/12/20 05:17:13;;;;;;;13.02;7.43;;;6.00;92.70;;;;;;5030243;28;20033;-69
2021/12/20 05:19:42;;;;;;;12.95;6.53;;;6.00;92.60;;;;;;5039948;28;20021;-69
2021/12/20 05:22:08;;;;;;;12.40;6.93;;;6.00;92.40;;;;;;5031582;28;20508;-69
2021/12/20 05:24:34;;;;;;;12.65;6.68;;;6.00;92.20;;;;;;5028500;28;20118;-69
2021/12/20 05:27:00;;;;;;;12.13;5.55;;;6.00;92.10;;;;;;5017955;28;20514;-69
2021/12/20 05:29:26;;;;;;;12.93;6.68;;;6.00;92.10;;;;;;5018687;28;20028;-69
2021/12/20 05:31:52;;;;;;;11.55;6.25;;;6.00;92.20;;;;;;5017562;28;20033;-69
2021/12/20 05:34:19;;;;;;;12.55;7.03;;;5.90;92.20;;;;;;5020382;28;20149;-69
2021/12/20 05:36:45;;;;;;;11.88;6.68;;;5.90;92.30;;;;;;5040359;28;20512;-69
2021/12/20 05:39:11;;;;;;;9.73;5.45;;;5.90;92.30;;;;;;5048444;28;20025;-70
2021/12/20 05:41:37;;;;;;;12.02;6.72;;;5.90;92.00;;;;;;5030812;28;20033;-70
2021/12/20 05:44:03;;;;;;;15.02;8.48;;;5.90;92.00;;;;;;5045225;28;20072;-70
2021/12/20 05:46:29;;;;;;;12.07;6.85;;;5.90;92.00;;;;;;5033270;28;20034;-70
2021/12/20 05:48:55;;;;;;;11.20;6.45;;;5.90;92.10;;;;;;5028895;28;20021;-70
2021/12/20 05:51:21;;;;;;;13.32;6.90;;;5.80;92.00;;;;;;5019619;28;20041;-70
2021/12/20 05:53:47;;;;;;;13.65;7.40;;;5.80;92.10;;;;;;5029063;28;20108;-70
2021/12/20 05:56:12;;;;;;;12.60;7.00;;;5.80;92.10;;;;;;5025308;28;20033;-70
2021/12/20 05:58:40;;;;;;;11.52;7.00;;;5.80;92.20;;;;;;5017508;28;20109;-71
2021/12/20 06:01:05;;;;;;;10.88;6.32;;;5.80;92.30;;;;;;5014446;28;20111;-70
2021/12/20 06:03:31;;;;;;;16.38;8.77;;;5.80;92.30;;;;;;5030742;28;20716;-71
2021/12/20 06:05:57;;;;;;;17.13;9.30;;;5.80;92.30;;;;;;5024292;28;20045;-71
2021/12/20 06:08:23;;;;;;;17.13;9.32;;;5.70;92.30;;;;;;5021779;28;20077;-71
2021/12/20 06:10:49;;;;;;;15.93;8.52;;;5.80;92.40;;;;;;5020279;28;20021;-70
2021/12/20 06:13:15;;;;;;;16.98;9.32;;;5.80;92.30;;;;;;5029323;28;20056;-70
2021/12/20 06:15:41;;;;;;;15.98;8.73;;;5.80;92.30;;;;;;5031070;28;20488;-70
2021/12/20 06:18:07;;;;;;;19.98;11.07;;;5.80;92.40;;;;;;5018678;28;20022;-70
2021/12/20 06:20:32;;;;;;;15.65;7.93;;;5.80;92.50;;;;;;5027713;28;20550;-71
2021/12/20 06:22:58;;;;;;;22.25;12.18;;;5.80;92.60;;;;;;5028006;28;20024;-71
2021/12/20 06:25:26;;;;;;;19.40;11.20;;;5.80;92.80;;;;;;5028295;28;20034;-70
2021/12/20 06:27:52;;;;;;;18.38;10.13;;;5.80;92.70;;;;;;5032721;28;20017;-70
2021/12/20 06:30:18;;;;;;;18.23;9.32;;;5.80;92.70;;;;;;5037400;28;20029;-69
2021/12/20 06:32:45;;;;;;;18.80;9.73;;;5.70;92.50;;;;;;5024264;28;20403;-70
2021/12/20 06:35:13;;;;;;;16.58;9.05;;;5.80;92.60;;;;;;5035371;28;20037;-69
2021/12/20 06:37:43;;;;;;;21.40;11.43;;;5.80;92.50;;;;;;5043102;28;20025;-70
2021/12/20 06:40:09;;;;;;;20.63;10.67;;;5.80;92.50;;;;;;5024899;28;20029;-69
2021/12/20 06:42:37;;;;;;;19.63;10.57;;;5.70;92.40;;;;;;5028642;28;20024;-69
2021/12/20 06:45:08;;;;;;;18.45;9.25;;;5.70;92.50;;;;;;5024715;28;20041;-69
2021/12/20 06:47:35;;;;;;;18.98;9.45;;;5.70;92.40;;;;;;5025759;28;20021;-69
2021/12/20 06:50:01;;;;;;;16.08;8.77;;;5.70;92.40;;;;;;5030590;28;20137;-69
2021/12/20 06:52:27;;;;;;;20.15;11.07;;;5.70;92.40;;;;;;5019662;28;20025;-69
2021/12/20 06:54:53;;;;;;;18.25;9.05;;;5.70;92.60;;;;;;5023673;28;20070;-69
2021/12/20 06:57:21;;;;;;;22.95;11.63;;;5.70;92.50;;;;;;5016718;28;20107;-69
2021/12/20 06:59:47;;;;;;;16.80;8.90;;;5.70;92.50;;;;;;5016046;28;20022;-69
2021/12/20 07:02:13;;;;;;;16.63;8.38;;;5.70;92.40;;;;;;5033004;28;20033;-70
2021/12/20 07:04:39;;;;;;;22.10;10.63;;;5.70;92.60;;;;;;5011223;28;20038;-72
2021/12/20 07:07:05;;;;;;;21.92;10.85;;;5.70;92.60;;;;;;5036902;28;20041;-72
2021/12/20 07:09:31;;;;;;;23.85;12.73;;;5.70;92.70;;;;;;5024710;28;20036;-72
2021/12/20 07:11:56;;;;;;;22.25;11.48;;;5.70;92.70;;;;;;5028258;28;20033;-72
2021/12/20 07:14:26;;;;;;;23.70;12.90;;;5.70;92.70;;;;;;5031679;28;20021;-71
2021/12/20 07:16:53;;;;;;;26.07;11.53;;;5.70;92.70;;;;;;5022500;28;20037;-72
2021/12/20 07:19:19;;;;;;;28.52;12.55;;;5.70;92.60;;;;;;5033611;28;20385;-72
2021/12/20 07:21:44;;;;;;;21.17;10.88;;;5.70;92.60;;;;;;5025372;28;20029;-72
2021/12/20 07:24:10;;;;;;;29.50;13.77;;;5.70;92.60;;;;;;5028383;28;20026;-72
2021/12/20 07:26:36;;;;;;;23.65;11.60;;;5.70;92.80;;;;;;5019624;28;20033;-72
2021/12/20 07:29:04;;;;;;;20.90;10.57;;;5.70;92.80;;;;;;5015719;28;20097;-71
2021/12/20 07:31:30;;;;;;;26.08;12.48;;;5.70;92.70;;;;;;5014988;28;20518;-72
2021/12/20 07:33:55;;;;;;;25.88;13.27;;;5.70;92.50;;;;;;5020376;28;20100;-72
2021/12/20 07:36:22;;;;;;;25.70;13.30;;;5.70;92.50;;;;;;5015778;28;20077;-72
2021/12/20 07:38:49;;;;;;;31.42;14.68;;;5.70;92.50;;;;;;5024282;28;20026;-72
2021/12/20 07:41:20;;;;;;;26.10;12.02;;;5.70;92.60;;;;;;5022169;28;20030;-72
2021/12/20 07:43:48;;;;;;;31.30;15.98;;;5.70;92.70;;;;;;5015364;28;20440;-72
2021/12/20 07:46:14;;;;;;;25.33;12.55;;;5.70;92.70;;;;;;5012867;28;20497;-72
2021/12/20 07:48:40;;;;;;;26.05;13.48;;;5.70;92.80;;;;;;5014239;28;20504;-72
2021/12/20 07:51:05;;;;;;;26.13;12.02;;;5.80;92.90;;;;;;5013910;28;20037;-73
2021/12/20 07:53:31;;;;;;;27.63;12.93;;;5.80;92.90;;;;;;5025026;28;20418;-71
2021/12/20 07:55:57;;;;;;;23.60;12.27;;;5.80;92.90;;;;;;5022605;28;20026;-72
2021/12/20 07:58:23;;;;;;;28.23;13.45;;;5.80;93.00;;;;;;5025171;28;20072;-72
2021/12/20 08:00:50;;;;;;;28.90;13.55;;;5.80;93.00;;;;;;5027245;28;20029;-71
2021/12/20 08:03:15;;;;;;;27.92;13.35;;;5.80;93.10;;;;;;5027437;28;20515;-71
2021/12/20 08:05:41;;;;;;;29.65;14.32;;;5.80;93.00;;;;;;5018572;28;20054;-70
2021/12/20 08:08:08;;;;;;;28.35;13.77;;;5.80;93.10;;;;;;5019853;28;20041;-71
2021/12/20 08:10:35;;;;;;;28.10;13.27;;;5.80;92.90;;;;;;5014958;28;20048;-71
2021/12/20 08:13:00;;;;;;;26.20;11.98;;;5.80;92.90;;;;;;5040780;28;20408;-71
2021/12/20 08:15:27;;;;;;;22.30;12.25;;;5.80;92.40;;;;;;5025554;28;20017;-72
2021/12/20 08:17:55;;;;;;;27.27;12.90;;;5.80;92.40;;;;;;5027902;28;20056;-72
2021/12/20 08:20:22;;;;;;;31.13;14.27;;;5.70;92.70;;;;;;5025197;28;20068;-72
2021/12/20 08:22:48;;;;;;;23.48;12.23;;;5.70;92.70;;;;;;5037050;28;20101;-71
2021/12/20 08:25:15;;;;;;;24.73;12.15;;;5.70;92.70;;;;;;5026973;28;20509;-71
2021/12/20 08:27:41;;;;;;;21.45;10.85;;;5.70;92.70;;;;;;5027732;28;20098;-72
2021/12/20 08:30:08;;;;;;;24.42;12.15;;;5.70;92.50;;;;;;5030110;28;20029;-72
2021/12/20 08:32:33;;;;;;;25.08;12.98;;;5.70;92.60;;;;;;5027929;28;20121;-71
2021/12/20 08:34:59;;;;;;;25.40;12.10;;;5.70;92.60;;;;;;5020273;28;20508;-71
2021/12/20 08:37:25;;;;;;;29.58;15.07;;;5.70;92.70;;;;;;5013657;28;20030;-71
2021/12/20 08:39:52;;;;;;;20.25;10.98;;;5.70;92.80;;;;;;5023227;28;20026;-73
2021/12/20 08:42:19;;;;;;;23.17;11.60;;;5.70;92.60;;;;;;5027084;28;20052;-72
2021/12/20 08:44:45;;;;;;;26.30;12.88;;;5.70;92.60;;;;;;5024441;28;20056;-71
2021/12/20 08:47:11;;;;;;;29.77;14.48;;;5.70;92.60;;;;;;5032756;28;20481;-72
2021/12/20 08:49:36;;;;;;;28.25;13.48;;;5.70;92.70;;;;;;5030783;28;20100;-72
2021/12/20 08:52:03;;;;;;;32.35;15.93;;;5.70;92.70;;;;;;5033915;28;20108;-71
2021/12/20 08:54:29;;;;;;;25.70;12.48;;;5.80;92.80;;;;;;5037241;28;20030;-72
2021/12/20 08:56:56;;;;;;;24.60;12.27;;;5.80;92.40;;;;;;5023650;28;20026;-71
2021/12/20 08:59:22;;;;;;;26.13;13.73;;;5.70;92.10;;;;;;5018117;28;20037;-71
2021/12/20 09:01:51;;;;;;;27.92;13.05;;;5.70;92.20;;;;;;5027273;28;20029;-71
2021/12/20 09:04:18;;;;;;;21.70;11.23;;;5.70;92.20;;;;;;5023206;28;20118;-70
2021/12/20 09:06:45;;;;;;;25.83;13.82;;;5.70;92.30;;;;;;5031867;28;20029;-71
2021/12/20 09:09:14;;;;;;;30.95;15.00;;;5.70;92.30;;;;;;5031680;28;20063;-71
2021/12/20 09:11:41;;;;;;;24.70;13.68;;;5.70;92.40;;;;;;5027974;28;20481;-71
2021/12/20 09:14:07;;;;;;;26.08;12.50;;;5.70;92.40;;;;;;5023135;28;20031;-71
2021/12/20 09:16:32;;;;;;;32.17;14.38;;;5.80;92.30;;;;;;5038085;28;20025;-71
2021/12/20 09:18:58;;;;;;;22.00;11.27;;;5.70;92.40;;;;;;5030430;28;20041;-71
2021/12/20 09:21:24;;;;;;;27.75;13.90;;;5.80;92.20;;;;;;5018195;28;20030;-71
2021/12/20 09:23:50;;;;;;;30.98;14.27;;;5.80;92.20;;;;;;5026607;28;20493;-70
2021/12/20 09:26:16;;;;;;;34.00;16.58;;;5.80;92.30;;;;;;5024080;28;20048;-70
2021/12/20 09:28:42;;;;;;;27.63;13.70;;;5.80;92.30;;;;;;5018438;28;20144;-71
2021/12/20 09:31:08;;;;;;;30.08;14.75;;;5.90;92.30;;;;;;5021696;28;20109;-71
2021/12/20 09:33:35;;;;;;;29.77;14.98;;;5.90;92.30;;;;;;5029394;28;20014;-70
2021/12/20 09:36:02;;;;;;;37.97;18.63;;;5.90;92.20;;;;;;5027065;28;20029;-71
2021/12/20 09:38:30;;;;;;;32.15;16.95;;;5.90;92.10;;;;;;5023087;28;20022;-71
2021/12/20 09:43:58;;;;;;;27.38;13.93;;;6.00;92.00;;;;;;5016686;28;20408;-71
2021/12/20 09:46:27;;;;;;;24.65;13.63;;;6.00;91.80;;;;;;5029316;28;20057;-71
2021/12/20 09:48:53;;;;;;;28.48;15.05;;;6.00;91.80;;;;;;5015181;28;20022;-71
2021/12/20 09:51:20;;;;;;;21.15;11.90;;;6.10;91.80;;;;;;5017877;28;20018;-71
2021/12/20 09:53:46;;;;;;;28.75;15.32;;;6.10;91.80;;;;;;5017454;28;20497;-71
2021/12/20 09:56:12;;;;;;;29.95;16.67;;;6.10;91.60;;;;;;5017986;28;20040;-71
2021/12/20 09:58:40;;;;;;;26.88;14.18;;;6.10;91.70;;;;;;5014578;28;20026;-71
2021/12/20 10:01:10;;;;;;;30.95;15.73;;;6.10;91.70;;;;;;5014297;28;20029;-71
2021/12/20 10:03:36;;;;;;;26.55;14.60;;;6.20;91.90;;;;;;5029605;28;20282;-71
2021/12/20 10:06:03;;;;;;;34.10;17.95;;;6.20;91.90;;;;;;5020558;28;20038;-71
2021/12/20 10:08:37;;;;;;;27.65;14.88;;;6.20;91.50;;;;;;5023484;28;20033;-72
2021/12/20 10:11:27;;;;;;;25.15;13.05;;;6.20;91.50;;;;;;5027991;28;20053;-71
2021/12/20 10:14:06;;;;;;;21.53;12.40;;;6.20;91.40;;;;;;5027847;28;20029;-72
2021/12/20 10:16:32;;;;;;;22.42;12.98;;;6.20;91.00;;;;;;5037110;28;20379;-71
2021/12/20 10:19:00;;;;;;;21.77;13.00;;;6.20;90.90;;;;;;5030303;28;20018;-71
2021/12/20 10:21:45;;;;;;;27.27;14.82;;;6.20;90.90;;;;;;5023773;28;20045;-71
2021/12/20 10:24:31;;;;;;;19.02;11.30;;;6.20;91.00;;;;;;5044276;28;20027;-71
2021/12/20 10:26:57;;;;;;;23.25;13.25;;;6.10;91.10;;;;;;5025687;28;20046;-72
2021/12/20 10:29:23;;;;;;;22.48;14.13;;;6.10;91.10;;;;;;5026172;28;20493;-71
2021/12/20 10:31:51;;;;;;;24.25;14.32;;;6.10;91.50;;;;;;5029666;28;20025;-71
2021/12/20 10:34:18;;;;;;;22.17;13.40;;;6.20;91.20;;;;;;5027557;28;20025;-71
2021/12/20 10:36:56;;;;;;;24.98;13.20;;;6.10;91.10;;;;;;5021201;28;20385;-70
2021/12/20 10:39:46;;;;;;;22.60;13.27;;;6.10;91.20;;;;;;5028465;28;20025;-71
2021/12/20 10:42:20;;;;;;;24.38;14.38;;;6.20;91.30;;;;;;5026595;28;20065;-71
2021/12/20 10:45:07;;;;;;;24.92;14.48;;;6.20;91.40;;;;;;5041735;28;20029;-71
2021/12/20 10:47:33;;;;;;;21.27;12.95;;;6.30;91.50;;;;;;5027274;28;20060;-71
2021/12/20 10:50:18;;;;;;;28.02;15.27;;;6.30;91.20;;;;;;5012218;28;20397;-71
2021/12/20 10:52:44;;;;;;;23.98;14.20;;;6.30;91.20;;;;;;5021999;28;20443;-71
2021/12/20 10:55:11;;;;;;;23.65;13.30;;;6.30;91.00;;;;;;5012662;28;20018;-71
2021/12/20 10:57:37;;;;;;;20.98;12.18;;;6.30;91.00;;;;;;5027537;28;20408;-71
2021/12/20 11:00:18;;;;;;;20.67;13.43;;;6.30;90.60;;;;;;5016833;28;20100;-71
2021/12/20 11:03:18;;;;;;;23.20;12.80;;;6.30;90.60;;;;;;5014977;28;20025;-71
2021/12/20 11:05:57;;;;;;;19.40;10.63;;;6.30;90.80;;;;;;5032043;28;20505;-71
2021/12/20 11:11:11;;;;;;;25.85;15.45;;;6.30;90.70;;;;;;5033656;28;20076;-72
2021/12/20 11:13:38;;;;;;;24.70;14.43;;;6.40;90.70;;;;;;5034483;28;20028;-71
2021/12/20 11:16:41;;;;;;;27.70;15.27;;;6.40;90.70;;;;;;5038834;28;20041;-71
2021/12/20 11:19:07;;;;;;;25.20;13.30;;;6.40;90.80;;;;;;5041285;28;20029;-72
2021/12/20 11:21:57;;;;;;;22.15;12.77;;;6.50;90.70;;;;;;5038365;28;20103;-73
2021/12/20 11:24:51;;;;;;;18.00;11.70;;;6.50;90.70;;;;;;5032038;28;20053;-73
2021/12/20 11:27:35;;;;;;;22.27;13.43;;;6.50;90.20;;;;;;5026607;28;20571;-72
2021/12/20 11:30:22;;;;;;;26.70;15.27;;;6.50;90.20;;;;;;5016133;28;20160;-72
2021/12/20 11:32:51;;;;;;;20.75;12.52;;;6.50;90.40;;;;;;5030384;28;20031;-72
2021/12/20 11:35:19;;;;;;;41.20;15.65;;;6.50;90.30;;;;;;5028973;28;20047;-72
2021/12/20 11:37:45;;;;;;;24.73;15.10;;;6.50;90.50;;;;;;5028085;28;20048;-72
2021/12/20 11:40:18;;;;;;;26.35;14.95;;;6.50;90.40;;;;;;5028207;28;20177;-72
2021/12/20 11:42:43;;;;;;;24.25;14.10;;;6.50;90.40;;;;;;5028308;28;20033;-71
2021/12/20 11:45:15;;;;;;;26.35;15.15;;;6.50;90.50;;;;;;5027942;28;20018;-71
2021/12/20 11:47:50;;;;;;;22.30;12.75;;;6.60;90.50;;;;;;5023715;28;20549;-70
2021/12/20 11:50:29;;;;;;;26.23;15.73;;;6.60;90.40;;;;;;5020959;28;20030;-71
2021/12/20 11:53:08;;;;;;;23.27;13.52;;;6.60;90.10;;;;;;5015590;28;20021;-70
2021/12/20 11:55:34;;;;;;;24.08;14.50;;;6.50;90.00;;;;;;5022282;28;20025;-71
2021/12/20 11:58:14;;;;;;;25.13;14.65;;;6.50;90.30;;;;;;5011435;28;20017;-71
2021/12/20 12:00:47;;;;;;;24.37;14.57;;;6.60;90.40;;;;;;5026156;28;20061;-71
2021/12/20 12:03:15;;;;;;;24.45;14.77;;;6.50;90.20;;;;;;5025704;28;20311;-71
2021/12/20 12:05:53;;;;;;;29.20;15.77;;;6.50;90.10;;;;;;5016936;28;20405;-71
2021/12/20 12:08:37;;;;;;;23.48;13.27;;;6.60;90.20;;;;;;5026200;28;20083;-72
2021/12/20 12:11:09;;;;;;;22.50;12.93;;;6.60;90.20;;;;;;5028130;28;20022;-72
2021/12/20 12:14:01;;;;;;;29.25;16.42;;;6.50;90.20;;;;;;5015017;28;20049;-72
2021/12/20 12:17:02;;;;;;;31.70;17.50;;;6.60;90.50;;;;;;5024050;28;20049;-73
2021/12/20 12:19:49;;;;;;;25.90;14.55;;;6.60;90.40;;;;;;5021931;28;20508;-71
2021/12/20 12:22:37;;;;;;;23.80;13.27;;;6.60;90.40;;;;;;5025099;28;20401;-68
2021/12/20 12:25:09;;;;;;;26.13;14.00;;;6.60;90.20;;;;;;5023062;28;20030;-71
2021/12/20 12:27:36;;;;;;;33.08;19.27;;;6.60;90.10;;;;;;5025787;28;20026;-71
2021/12/20 12:30:13;;;;;;;28.77;17.25;;;6.60;90.20;;;;;;5027620;28;20624;-72
2021/12/20 12:32:48;;;;;;;31.15;18.65;;;6.70;90.40;;;;;;5018283;28;20030;-71
2021/12/20 12:35:51;;;;;;;34.42;20.33;;;6.70;90.30;;;;;;5014481;28;20026;-71
2021/12/20 12:38:27;;;;;;;31.92;17.67;;;6.70;90.10;;;;;;5018548;28;20036;-71
2021/12/20 12:41:05;;;;;;;32.45;17.52;;;6.80;90.00;;;;;;5023664;28;20545;-71
2021/12/20 12:43:50;;;;;;;30.98;18.35;;;6.80;89.90;;;;;;5025418;28;20060;-71
2021/12/20 12:46:35;;;;;;;31.90;16.75;;;6.80;90.00;;;;;;5015254;28;20083;-71
2021/12/20 12:49:21;;;;;;;33.25;17.85;;;6.80;90.10;;;;;;5026796;28;20091;-72
2021/12/20 12:51:57;;;;;;;32.35;17.80;;;6.90;90.00;;;;;;5034787;28;20051;-71
2021/12/20 12:54:38;;;;;;;33.10;18.70;;;6.90;89.90;;;;;;5019411;28;20022;-80
2021/12/20 12:57:10;;;;;;;32.58;17.73;;;6.90;90.00;;;;;;5030728;28;20021;-79
2021/12/20 12:59:48;;;;;;;29.05;17.38;;;6.90;89.40;;;;;;5029512;28;20029;-78
2021/12/20 13:02:27;;;;;;;31.23;17.40;;;6.90;89.10;;;;;;5031521;28;20036;-77
2021/12/20 13:05:07;;;;;;;29.00;16.40;;;6.90;89.30;;;;;;5027441;28;20049;-77
2021/12/20 13:07:37;;;;;;;32.90;19.60;;;6.90;89.30;;;;;;5029555;28;20049;-77